sensor_id;sensor_type;location;lat;lon;timestamp;pressure;altitude;pressure_sealevel;temperature;humidity
13800;BME280;6971;50.028;9.258;2024-01-25T00:02:58;100508.72;;;6.71;100.00
13800;BME280;6971;50.028;9.258;2024-01-25T00:07:58;100507.88;;;6.71;100.00
13800;BME280;6971;50.028;9.258;2024-01-25T00:12:59;100495.72;;;6.66;100.00
13800;BME280;6971;50.028;9.258;2024-01-25T00:17:59;100484.34;;;6.68;100.00
13800;BME280;6971;50.028;9.258;2024-01-25T00:22:59;100481.88;;;6.61;100.00
13800;BME280;6971;50.028;9.258;2024-01-25T00:28:00;100468.75;;;6.61;100.00
13800;BME280;6971;50.028;9.258;2024-01-25T00:33:00;100465.25;;;6.62;100.00
13800;BME280;6971;50.028;9.258;2024-01-25T00:38:01;100462.81;;;6.53;100.00
13800;BME280;6971;50.028;9.258;2024-01-25T00:43:02;100463.88;;;6.43;100.00
13800;BME280;6971;50.028;9.258;2024-01-25T00:48:03;100463.06;;;6.40;100.00
13800;BME280;6971;50.028;9.258;2024-01-25T00:53:04;100462.22;;;6.38;100.00
13800;BME280;6971;50.028;9.258;2024-01-25T00:58:04;100463.16;;;6.34;100.00
13800;BME280;6971;50.028;9.258;2024-01-25T01:03:05;100438.72;;;6.35;100.00
13800;BME280;6971;50.028;9.258;2024-01-25T01:08:06;100456.03;;;6.43;100.00
13800;BME280;6971;50.028;9.258;2024-01-25T01:13:06;100464.56;;;6.52;100.00
13800;BME280;6971;50.028;9.258;2024-01-25T01:18:07;100473.16;;;6.59;100.00
13800;BME280;6971;50.028;9.258;2024-01-25T01:23:07;100469.53;;;6.66;100.00
13800;BME280;6971;50.028;9.258;2024-01-25T01:28:07;100474.78;;;6.65;100.00
13800;BME280;6971;50.028;9.258;2024-01-25T01:33:08;100465.94;;;6.71;100.00
13800;BME280;6971;50.028;9.258;2024-01-25T01:38:09;100458.16;;;6.68;100.00
13800;BME280;6971;50.028;9.258;2024-01-25T01:43:17;100445.91;;;6.68;100.00
13800;BME280;6971;50.028;9.258;2024-01-25T01:48:18;100450.53;;;6.55;100.00
13800;BME280;6971;50.028;9.258;2024-01-25T01:53:18;100454.19;;;6.48;100.00
13800;BME280;6971;50.028;9.258;2024-01-25T01:58:20;100459.34;;;6.51;100.00
13800;BME280;6971;50.028;9.258;2024-01-25T02:03:21;100456.69;;;6.54;100.00
13800;BME280;6971;50.028;9.258;2024-01-25T02:08:21;100453.19;;;6.53;100.00
13800;BME280;6971;50.028;9.258;2024-01-25T02:13:22;100439.31;;;6.50;100.00
13800;BME280;6971;50.028;9.258;2024-01-25T02:18:22;100467.44;;;6.38;100.00
13800;BME280;6971;50.028;9.258;2024-01-25T02:23:23;100473.63;;;6.34;100.00
13800;BME280;6971;50.028;9.258;2024-01-25T02:28:23;100479.00;;;6.28;100.00
13800;BME280;6971;50.028;9.258;2024-01-25T02:33:23;100481.59;;;6.30;100.00
13800;BME280;6971;50.028;9.258;2024-01-25T02:38:24;100482.41;;;6.33;100.00
13800;BME280;6971;50.028;9.258;2024-01-25T02:43:24;100488.59;;;6.29;100.00
13800;BME280;6971;50.028;9.258;2024-01-25T02:48:25;100481.59;;;6.30;100.00
13800;BME280;6971;50.028;9.258;2024-01-25T02:53:25;100487.75;;;6.29;100.00
13800;BME280;6971;50.028;9.258;2024-01-25T02:58:26;100493.81;;;6.29;100.00
13800;BME280;6971;50.028;9.258;2024-01-25T03:03:26;100494.84;;;6.22;100.00
13800;BME280;6971;50.028;9.258;2024-01-25T03:08:27;100501.63;;;6.32;100.00
13800;BME280;6971;50.028;9.258;2024-01-25T03:13:27;100505.00;;;6.37;100.00
13800;BME280;6971;50.028;9.258;2024-01-25T03:18:27;100507.56;;;6.40;100.00
13800;BME280;6971;50.028;9.258;2024-01-25T03:23:28;100508.53;;;6.36;100.00
13800;BME280;6971;50.028;9.258;2024-01-25T03:28:28;100515.47;;;6.37;100.00
13800;BME280;6971;50.028;9.258;2024-01-25T03:33:28;100517.19;;;6.40;100.00
13800;BME280;6971;50.028;9.258;2024-01-25T03:38:29;100526.66;;;6.47;100.00
13800;BME280;6971;50.028;9.258;2024-01-25T03:43:29;100532.00;;;6.41;100.00
13800;BME280;6971;50.028;9.258;2024-01-25T03:48:30;100541.66;;;6.37;100.00
13800;BME280;6971;50.028;9.258;2024-01-25T03:53:30;100546.00;;;6.38;100.00
13800;BME280;6971;50.028;9.258;2024-01-25T03:58:31;100545.25;;;6.32;100.00
13800;BME280;6971;50.028;9.258;2024-01-25T04:03:31;100539.94;;;6.36;100.00
13800;BME280;6971;50.028;9.258;2024-01-25T04:08:32;100549.84;;;6.20;100.00
13800;BME280;6971;50.028;9.258;2024-01-25T04:13:32;100550.00;;;6.12;100.00
13800;BME280;6971;50.028;9.258;2024-01-25T04:18:32;100554.50;;;6.01;100.00
13800;BME280;6971;50.028;9.258;2024-01-25T04:23:33;100557.44;;;5.81;100.00
13800;BME280;6971;50.028;9.258;2024-01-25T04:28:34;100555.09;;;5.64;100.00
13800;BME280;6971;50.028;9.258;2024-01-25T04:33:34;100547.47;;;5.49;100.00
13800;BME280;6971;50.028;9.258;2024-01-25T04:38:34;100547.72;;;5.32;100.00
13800;BME280;6971;50.028;9.258;2024-01-25T04:43:35;100552.22;;;5.21;100.00
13800;BME280;6971;50.028;9.258;2024-01-25T04:48:39;100551.72;;;4.94;100.00
13800;BME280;6971;50.028;9.258;2024-01-25T04:53:39;100566.72;;;4.78;100.00
13800;BME280;6971;50.028;9.258;2024-01-25T04:58:40;100584.84;;;4.01;100.00
13800;BME280;6971;50.028;9.258;2024-01-25T05:03:40;100589.25;;;3.96;100.00
13800;BME280;6971;50.028;9.258;2024-01-25T05:08:42;100604.22;;;3.67;100.00
13800;BME280;6971;50.028;9.258;2024-01-25T05:13:43;100595.75;;;3.34;100.00
13800;BME280;6971;50.028;9.258;2024-01-25T05:18:43;100603.63;;;3.21;100.00
13800;BME280;6971;50.028;9.258;2024-01-25T05:23:44;100606.28;;;3.06;100.00
13800;BME280;6971;50.028;9.258;2024-01-25T05:28:44;100610.75;;;2.76;100.00
13800;BME280;6971;50.028;9.258;2024-01-25T05:33:45;100604.69;;;2.67;100.00
13800;BME280;6971;50.028;9.258;2024-01-25T05:38:45;100606.44;;;2.53;100.00
13800;BME280;6971;50.028;9.258;2024-01-25T05:43:45;100592.59;;;2.32;100.00
13800;BME280;6971;50.028;9.258;2024-01-25T05:48:46;100583.94;;;2.24;100.00
13800;BME280;6971;50.028;9.258;2024-01-25T05:53:46;100586.56;;;2.16;100.00
13800;BME280;6971;50.028;9.258;2024-01-25T05:58:46;100583.06;;;2.04;100.00
13800;BME280;6971;50.028;9.258;2024-01-25T06:03:47;100579.59;;;2.21;100.00
13800;BME280;6971;50.028;9.258;2024-01-25T06:08:47;100589.13;;;2.30;100.00
13800;BME280;6971;50.028;9.258;2024-01-25T06:13:48;100598.66;;;2.39;100.00
13800;BME280;6971;50.028;9.258;2024-01-25T06:18:48;100609.94;;;2.45;100.00
13800;BME280;6971;50.028;9.258;2024-01-25T06:23:48;100606.50;;;1.97;100.00
13800;BME280;6971;50.028;9.258;2024-01-25T06:28:49;100606.44;;;1.79;100.00
13800;BME280;6971;50.028;9.258;2024-01-25T06:33:49;100613.34;;;1.49;100.00
13800;BME280;6971;50.028;9.258;2024-01-25T06:38:50;100615.94;;;1.51;100.00
13800;BME280;6971;50.028;9.258;2024-01-25T06:43:51;100628.88;;;1.30;100.00
13800;BME280;6971;50.028;9.258;2024-01-25T06:48:51;100633.19;;;1.25;100.00
13800;BME280;6971;50.028;9.258;2024-01-25T06:53:51;100642.69;;;1.22;100.00
13800;BME280;6971;50.028;9.258;2024-01-25T06:58:52;100665.19;;;1.20;100.00
13800;BME280;6971;50.028;9.258;2024-01-25T07:03:52;100667.81;;;1.18;100.00
13800;BME280;6971;50.028;9.258;2024-01-25T07:08:53;100670.34;;;1.13;100.00
13800;BME280;6971;50.028;9.258;2024-01-25T07:13:53;100671.25;;;1.20;100.00
13800;BME280;6971;50.028;9.258;2024-01-25T07:18:54;100675.59;;;1.21;100.00
13800;BME280;6971;50.028;9.258;2024-01-25T07:23:54;100682.47;;;1.14;100.00
13800;BME280;6971;50.028;9.258;2024-01-25T07:28:54;100681.72;;;1.36;100.00
13800;BME280;6971;50.028;9.258;2024-01-25T07:33:58;100686.97;;;1.45;100.00
13800;BME280;6971;50.028;9.258;2024-01-25T07:38:58;100682.59;;;1.39;100.00
13800;BME280;6971;50.028;9.258;2024-01-25T07:43:58;100686.97;;;1.47;100.00
13800;BME280;6971;50.028;9.258;2024-01-25T07:48:59;100678.28;;;1.40;100.00
13800;BME280;6971;50.028;9.258;2024-01-25T07:53:59;100688.63;;;1.32;100.00
13800;BME280;6971;50.028;9.258;2024-01-25T07:59:00;100683.44;;;1.34;100.00
13800;BME280;6971;50.028;9.258;2024-01-25T08:04:00;100686.16;;;1.69;100.00
13800;BME280;6971;50.028;9.258;2024-01-25T08:09:00;100703.47;;;1.60;100.00
13800;BME280;6971;50.028;9.258;2024-01-25T08:14:01;100698.31;;;1.72;100.00
13800;BME280;6971;50.028;9.258;2024-01-25T08:19:03;100693.97;;;1.77;100.00
13800;BME280;6971;50.028;9.258;2024-01-25T08:24:04;100692.25;;;1.76;100.00
13800;BME280;6971;50.028;9.258;2024-01-25T08:29:05;100689.72;;;2.00;100.00
13800;BME280;6971;50.028;9.258;2024-01-25T08:34:05;100689.72;;;2.32;100.00
13800;BME280;6971;50.028;9.258;2024-01-25T08:39:05;100694.06;;;2.51;100.00
13800;BME280;6971;50.028;9.258;2024-01-25T08:44:06;100697.38;;;3.34;100.00
13800;BME280;6971;50.028;9.258;2024-01-25T08:49:07;100699.81;;;3.70;100.00
13800;BME280;6971;50.028;9.258;2024-01-25T08:54:09;100702.28;;;3.96;100.00
13800;BME280;6971;50.028;9.258;2024-01-25T08:59:10;100722.16;;;4.16;100.00
13800;BME280;6971;50.028;9.258;2024-01-25T09:04:10;100731.44;;;4.56;100.00
13800;BME280;6971;50.028;9.258;2024-01-25T09:09:11;100736.50;;;4.75;100.00
13800;BME280;6971;50.028;9.258;2024-01-25T09:14:12;100743.34;;;4.90;100.00
13800;BME280;6971;50.028;9.258;2024-01-25T09:19:13;100757.28;;;4.90;100.00
13800;BME280;6971;50.028;9.258;2024-01-25T09:24:13;100764.53;;;5.45;100.00
13800;BME280;6971;50.028;9.258;2024-01-25T09:29:14;100764.38;;;5.60;100.00
13800;BME280;6971;50.028;9.258;2024-01-25T09:34:14;100762.66;;;5.59;100.00
13800;BME280;6971;50.028;9.258;2024-01-25T09:39:15;100763.28;;;5.79;100.00
13800;BME280;6971;50.028;9.258;2024-01-25T09:44:15;100770.34;;;6.39;100.00
13800;BME280;6971;50.028;9.258;2024-01-25T09:49:17;100777.28;;;6.96;100.00
13800;BME280;6971;50.028;9.258;2024-01-25T09:54:18;100778.56;;;7.23;100.00
13800;BME280;6971;50.028;9.258;2024-01-25T09:59:19;100774.47;;;7.07;100.00
13800;BME280;6971;50.028;9.258;2024-01-25T10:04:19;100782.44;;;7.51;100.00
13800;BME280;6971;50.028;9.258;2024-01-25T10:09:23;100800.44;;;8.12;100.00
13800;BME280;6971;50.028;9.258;2024-01-25T10:14:24;100805.06;;;7.99;100.00
13800;BME280;6971;50.028;9.258;2024-01-25T10:19:25;100809.31;;;8.05;100.00
13800;BME280;6971;50.028;9.258;2024-01-25T10:24:26;100809.63;;;8.30;100.00
13800;BME280;6971;50.028;9.258;2024-01-25T10:29:28;100807.44;;;8.12;100.00
13800;BME280;6971;50.028;9.258;2024-01-25T10:34:28;100805.25;;;8.31;100.00
13800;BME280;6971;50.028;9.258;2024-01-25T10:39:29;100802.41;;;8.01;100.00
13800;BME280;6971;50.028;9.258;2024-01-25T10:44:30;100804.13;;;7.59;100.00
13800;BME280;6971;50.028;9.258;2024-01-25T10:49:31;100804.41;;;7.43;100.00
13800;BME280;6971;50.028;9.258;2024-01-25T10:54:33;100800.16;;;7.83;100.00
13800;BME280;6971;50.028;9.258;2024-01-25T10:59:33;100786.44;;;8.10;100.00
13800;BME280;6971;50.028;9.258;2024-01-25T11:04:34;100786.28;;;8.57;100.00
13800;BME280;6971;50.028;9.258;2024-01-25T11:09:35;100791.19;;;9.08;100.00
13800;BME280;6971;50.028;9.258;2024-01-25T11:14:37;100790.19;;;8.79;100.00
13800;BME280;6971;50.028;9.258;2024-01-25T11:19:38;100798.19;;;8.72;100.00
13800;BME280;6971;50.028;9.258;2024-01-25T11:24:38;100807.53;;;8.84;100.00
13800;BME280;6971;50.028;9.258;2024-01-25T11:29:39;100791.47;;;8.97;100.00
13800;BME280;6971;50.028;9.258;2024-01-25T11:34:41;100789.03;;;8.53;100.00
13800;BME280;6971;50.028;9.258;2024-01-25T11:39:43;100767.88;;;8.94;100.00
13800;BME280;6971;50.028;9.258;2024-01-25T11:44:43;100760.06;;;9.57;100.00
13800;BME280;6971;50.028;9.258;2024-01-25T11:49:44;100766.88;;;8.98;100.00
13800;BME280;6971;50.028;9.258;2024-01-25T11:54:44;100764.75;;;8.41;100.00
13800;BME280;6971;50.028;9.258;2024-01-25T11:59:46;100746.91;;;8.92;100.00
13800;BME280;6971;50.028;9.258;2024-01-25T12:04:47;100737.47;;;9.48;100.00
13800;BME280;6971;50.028;9.258;2024-01-25T12:15:05;100727.31;;;8.31;100.00
13800;BME280;6971;50.028;9.258;2024-01-25T12:20:06;100718.78;;;8.23;100.00
13800;BME280;6971;50.028;9.258;2024-01-25T12:25:10;100718.81;;;8.21;100.00
13800;BME280;6971;50.028;9.258;2024-01-25T12:30:13;100717.69;;;7.92;100.00
13800;BME280;6971;50.028;9.258;2024-01-25T12:35:13;100716.97;;;7.86;100.00
13800;BME280;6971;50.028;9.258;2024-01-25T12:40:14;100701.25;;;7.84;100.00
13800;BME280;6971;50.028;9.258;2024-01-25T12:45:14;100696.25;;;7.71;100.00
13800;BME280;6971;50.028;9.258;2024-01-25T12:50:15;100698.44;;;7.92;100.00
13800;BME280;6971;50.028;9.258;2024-01-25T12:55:15;100686.56;;;7.77;100.00
13800;BME280;6971;50.028;9.258;2024-01-25T13:00:16;100683.50;;;7.95;100.00
13800;BME280;6971;50.028;9.258;2024-01-25T13:05:16;100687.13;;;8.28;100.00
13800;BME280;6971;50.028;9.258;2024-01-25T13:10:17;100675.94;;;8.19;100.00
13800;BME280;6971;50.028;9.258;2024-01-25T13:15:17;100676.47;;;8.34;100.00
13800;BME280;6971;50.028;9.258;2024-01-25T13:20:18;100658.25;;;8.62;100.00
13800;BME280;6971;50.028;9.258;2024-01-25T13:25:18;100650.28;;;8.31;100.00
13800;BME280;6971;50.028;9.258;2024-01-25T13:30:18;100640.91;;;8.20;100.00
13800;BME280;6971;50.028;9.258;2024-01-25T13:35:19;100643.16;;;8.00;100.00
13800;BME280;6971;50.028;9.258;2024-01-25T13:40:19;100645.03;;;7.94;100.00
13800;BME280;6971;50.028;9.258;2024-01-25T13:45:20;100634.59;;;7.91;100.00
13800;BME280;6971;50.028;9.258;2024-01-25T13:50:20;100625.88;;;7.89;100.00
13800;BME280;6971;50.028;9.258;2024-01-25T13:55:21;100629.56;;;7.82;100.00
13800;BME280;6971;50.028;9.258;2024-01-25T14:00:21;100626.09;;;7.80;100.00
13800;BME280;6971;50.028;9.258;2024-01-25T14:05:22;100634.25;;;7.67;100.00
13800;BME280;6971;50.028;9.258;2024-01-25T14:10:23;100636.34;;;7.53;100.00
13800;BME280;6971;50.028;9.258;2024-01-25T14:15:23;100643.25;;;7.57;100.00
13800;BME280;6971;50.028;9.258;2024-01-25T14:20:23;100633.75;;;7.50;100.00
13800;BME280;6971;50.028;9.258;2024-01-25T14:25:24;100617.00;;;7.57;100.00
13800;BME280;6971;50.028;9.258;2024-01-25T14:30:24;100612.94;;;7.43;100.00
13800;BME280;6971;50.028;9.258;2024-01-25T14:35:24;100633.91;;;7.43;100.00
13800;BME280;6971;50.028;9.258;2024-01-25T14:40:28;100621.06;;;7.31;100.00
13800;BME280;6971;50.028;9.258;2024-01-25T14:45:28;100599.22;;;7.32;100.00
13800;BME280;6971;50.028;9.258;2024-01-25T14:50:30;100602.00;;;7.23;100.00
13800;BME280;6971;50.028;9.258;2024-01-25T14:55:32;100609.41;;;7.44;100.00
13800;BME280;6971;50.028;9.258;2024-01-25T15:00:33;100624.22;;;7.47;100.00
13800;BME280;6971;50.028;9.258;2024-01-25T15:05:34;100622.53;;;7.44;100.00
13800;BME280;6971;50.028;9.258;2024-01-25T15:10:34;100617.13;;;7.52;100.00
13800;BME280;6971;50.028;9.258;2024-01-25T15:15:34;100628.81;;;7.37;100.00
13800;BME280;6971;50.028;9.258;2024-01-25T15:20:35;100637.78;;;7.25;100.00
13800;BME280;6971;50.028;9.258;2024-01-25T15:25:36;100605.94;;;7.01;100.00
13800;BME280;6971;50.028;9.258;2024-01-25T15:30:36;100589.41;;;6.99;100.00
13800;BME280;6971;50.028;9.258;2024-01-25T15:35:36;100595.31;;;6.63;100.00
13800;BME280;6971;50.028;9.258;2024-01-25T15:40:37;100580.94;;;6.37;100.00
13800;BME280;6971;50.028;9.258;2024-01-25T15:45:37;100577.88;;;6.15;100.00
13800;BME280;6971;50.028;9.258;2024-01-25T15:50:38;100561.75;;;5.85;100.00
13800;BME280;6971;50.028;9.258;2024-01-25T15:55:39;100563.75;;;5.69;100.00
13800;BME280;6971;50.028;9.258;2024-01-25T16:00:39;100546.72;;;5.40;100.00
13800;BME280;6971;50.028;9.258;2024-01-25T16:05:40;100569.72;;;5.16;100.00
13800;BME280;6971;50.028;9.258;2024-01-25T16:10:40;100580.41;;;4.97;100.00
13800;BME280;6971;50.028;9.258;2024-01-25T16:15:40;100572.72;;;4.85;100.00
13800;BME280;6971;50.028;9.258;2024-01-25T16:20:41;100564.94;;;4.78;100.00
13800;BME280;6971;50.028;9.258;2024-01-25T16:25:41;100552.69;;;4.83;100.00
13800;BME280;6971;50.028;9.258;2024-01-25T16:30:43;100545.97;;;4.64;100.00
13800;BME280;6971;50.028;9.258;2024-01-25T16:35:43;100537.47;;;4.43;100.00
13800;BME280;6971;50.028;9.258;2024-01-25T16:40:44;100540.94;;;4.48;100.00
13800;BME280;6971;50.028;9.258;2024-01-25T16:45:44;100543.31;;;4.67;100.00
13800;BME280;6971;50.028;9.258;2024-01-25T16:50:44;100537.69;;;4.21;100.00
13800;BME280;6971;50.028;9.258;2024-01-25T16:55:45;100529.53;;;4.54;100.00
13800;BME280;6971;50.028;9.258;2024-01-25T17:00:46;100528.16;;;4.17;100.00
13800;BME280;6971;50.028;9.258;2024-01-25T17:05:46;100524.81;;;4.07;100.00
13800;BME280;6971;50.028;9.258;2024-01-25T17:10:47;100527.44;;;4.02;100.00
13800;BME280;6971;50.028;9.258;2024-01-25T17:15:47;100545.03;;;3.80;100.00
13800;BME280;6971;50.028;9.258;2024-01-25T17:20:47;100547.66;;;3.77;100.00
13800;BME280;6971;50.028;9.258;2024-01-25T17:25:48;100550.38;;;3.64;100.00
13800;BME280;6971;50.028;9.258;2024-01-25T17:30:48;100548.78;;;3.45;100.00
13800;BME280;6971;50.028;9.258;2024-01-25T17:35:49;100534.09;;;3.30;100.00
13800;BME280;6971;50.028;9.258;2024-01-25T17:40:50;100535.03;;;3.16;100.00
13800;BME280;6971;50.028;9.258;2024-01-25T17:45:51;100525.56;;;2.98;100.00
13800;BME280;6971;50.028;9.258;2024-01-25T17:50:51;100518.69;;;2.89;100.00
13800;BME280;6971;50.028;9.258;2024-01-25T17:55:52;100527.47;;;2.66;100.00
13800;BME280;6971;50.028;9.258;2024-01-25T18:00:52;100516.22;;;2.50;100.00
13800;BME280;6971;50.028;9.258;2024-01-25T18:05:52;100525.78;;;2.48;100.00
13800;BME280;6971;50.028;9.258;2024-01-25T18:10:54;100524.06;;;2.44;100.00
13800;BME280;6971;50.028;9.258;2024-01-25T18:15:55;100505.81;;;2.58;100.00
13800;BME280;6971;50.028;9.258;2024-01-25T18:20:56;100490.22;;;2.44;100.00
13800;BME280;6971;50.028;9.258;2024-01-25T18:25:56;100486.75;;;2.51;100.00
13800;BME280;6971;50.028;9.258;2024-01-25T18:30:56;100503.16;;;2.59;100.00
13800;BME280;6971;50.028;9.258;2024-01-25T18:35:57;100493.63;;;2.60;100.00
13800;BME280;6971;50.028;9.258;2024-01-25T18:40:58;100486.66;;;2.65;100.00
13800;BME280;6971;50.028;9.258;2024-01-25T18:45:58;100496.25;;;2.57;100.00
13800;BME280;6971;50.028;9.258;2024-01-25T18:50:59;100486.66;;;2.71;100.00
13800;BME280;6971;50.028;9.258;2024-01-25T18:55:59;100484.88;;;2.78;100.00
13800;BME280;6971;50.028;9.258;2024-01-25T19:01:00;100492.66;;;2.84;100.00
13800;BME280;6971;50.028;9.258;2024-01-25T19:06:02;100488.28;;;2.90;100.00
13800;BME280;6971;50.028;9.258;2024-01-25T19:11:03;100500.50;;;2.80;100.00
13800;BME280;6971;50.028;9.258;2024-01-25T19:16:04;100493.50;;;2.88;100.00
13800;BME280;6971;50.028;9.258;2024-01-25T19:21:04;100497.84;;;2.87;100.00
13800;BME280;6971;50.028;9.258;2024-01-25T19:26:04;100497.75;;;3.05;100.00
13800;BME280;6971;50.028;9.258;2024-01-25T19:31:05;100487.34;;;3.02;100.00
13800;BME280;6971;50.028;9.258;2024-01-25T19:36:06;100489.03;;;3.13;100.00
13800;BME280;6971;50.028;9.258;2024-01-25T19:41:08;100481.22;;;3.13;100.00
13800;BME280;6971;50.028;9.258;2024-01-25T19:46:08;100488.09;;;3.24;100.00
13800;BME280;6971;50.028;9.258;2024-01-25T19:51:09;100493.25;;;3.32;100.00
13800;BME280;6971;50.028;9.258;2024-01-25T19:56:10;100493.25;;;3.32;100.00
13800;BME280;6971;50.028;9.258;2024-01-25T20:01:10;100491.50;;;3.32;100.00
13800;BME280;6971;50.028;9.258;2024-01-25T20:06:14;100487.97;;;3.41;100.00
13800;BME280;6971;50.028;9.258;2024-01-25T20:11:15;100482.72;;;3.47;100.00
13800;BME280;6971;50.028;9.258;2024-01-25T20:16:15;100481.03;;;3.42;100.00
13800;BME280;6971;50.028;9.258;2024-01-25T20:21:35;100476.72;;;3.36;100.00
13800;BME280;6971;50.028;9.258;2024-01-25T20:26:35;100474.91;;;3.43;100.00
13800;BME280;6971;50.028;9.258;2024-01-25T20:31:36;100479.16;;;3.56;100.00
13800;BME280;6971;50.028;9.258;2024-01-25T20:36:36;100481.00;;;3.46;100.00
13800;BME280;6971;50.028;9.258;2024-01-25T20:41:36;100488.75;;;3.52;100.00
13800;BME280;6971;50.028;9.258;2024-01-25T20:46:37;100484.28;;;3.67;100.00
13800;BME280;6971;50.028;9.258;2024-01-25T20:51:37;100479.94;;;3.69;100.00
13800;BME280;6971;50.028;9.258;2024-01-25T20:56:37;100483.47;;;3.63;100.00
13800;BME280;6971;50.028;9.258;2024-01-25T21:01:38;100480.69;;;3.81;100.00
13800;BME280;6971;50.028;9.258;2024-01-25T21:06:39;100477.13;;;3.91;100.00
13800;BME280;6971;50.028;9.258;2024-01-25T21:11:39;100466.66;;;3.94;100.00
13800;BME280;6971;50.028;9.258;2024-01-25T21:16:40;100463.25;;;3.87;100.00
13800;BME280;6971;50.028;9.258;2024-01-25T21:21:40;100456.22;;;3.92;100.00
13800;BME280;6971;50.028;9.258;2024-01-25T21:26:40;100453.56;;;4.00;100.00
13800;BME280;6971;50.028;9.258;2024-01-25T21:31:41;100452.66;;;4.04;100.00
13800;BME280;6971;50.028;9.258;2024-01-25T21:36:41;100450.88;;;4.07;100.00
13800;BME280;6971;50.028;9.258;2024-01-25T21:41:42;100452.59;;;4.08;100.00
13800;BME280;6971;50.028;9.258;2024-01-25T21:46:42;100449.97;;;4.11;100.00
13800;BME280;6971;50.028;9.258;2024-01-25T21:51:43;100450.84;;;4.13;100.00
13800;BME280;6971;50.028;9.258;2024-01-25T21:56:44;100449.84;;;4.23;100.00
13800;BME280;6971;50.028;9.258;2024-01-25T22:01:44;100449.81;;;4.26;100.00
13800;BME280;6971;50.028;9.258;2024-01-25T22:06:44;100444.56;;;4.28;100.00
13800;BME280;6971;50.028;9.258;2024-01-25T22:11:45;100444.66;;;4.18;100.00
13800;BME280;6971;50.028;9.258;2024-01-25T22:16:45;100443.69;;;4.29;100.00
13800;BME280;6971;50.028;9.258;2024-01-25T22:21:46;100446.19;;;4.38;100.00
13800;BME280;6971;50.028;9.258;2024-01-25T22:26:46;100441.78;;;4.42;100.00
13800;BME280;6971;50.028;9.258;2024-01-25T22:31:46;100430.53;;;4.37;100.00
13800;BME280;6971;50.028;9.258;2024-01-25T22:36:47;100435.75;;;4.38;100.00
13800;BME280;6971;50.028;9.258;2024-01-25T22:41:47;100432.22;;;4.42;100.00
13800;BME280;6971;50.028;9.258;2024-01-25T22:46:48;100433.91;;;4.48;100.00
13800;BME280;6971;50.028;9.258;2024-01-25T22:51:50;100435.56;;;4.52;100.00
13800;BME280;6971;50.028;9.258;2024-01-25T22:56:50;100441.63;;;4.56;100.00
13800;BME280;6971;50.028;9.258;2024-01-25T23:01:51;100445.03;;;4.60;100.00
13800;BME280;6971;50.028;9.258;2024-01-25T23:06:51;100433.56;;;4.72;100.00
13800;BME280;6971;50.028;9.258;2024-01-25T23:11:52;100434.53;;;4.66;100.00
13800;BME280;6971;50.028;9.258;2024-01-25T23:16:52;100429.41;;;4.58;100.00
13800;BME280;6971;50.028;9.258;2024-01-25T23:21:52;100431.03;;;4.68;100.00
13800;BME280;6971;50.028;9.258;2024-01-25T23:26:53;100431.94;;;4.64;100.00
13800;BME280;6971;50.028;9.258;2024-01-25T23:31:53;100414.47;;;4.68;100.00
13800;BME280;6971;50.028;9.258;2024-01-25T23:36:54;100407.59;;;4.62;100.00
13800;BME280;6971;50.028;9.258;2024-01-25T23:41:54;100405.88;;;4.61;100.00
13800;BME280;6971;50.028;9.258;2024-01-25T23:46:55;100403.28;;;4.58;100.00
13800;BME280;6971;50.028;9.258;2024-01-25T23:51:55;100409.13;;;4.77;100.00
13800;BME280;6971;50.028;9.258;2024-01-25T23:56:56;100401.16;;;4.85;100.00
